sensor_id;sensor_type;location;lat;lon;timestamp;temperature;humidity
25112;DHT22;13092;51.996;4.458;2023-02-13T00:01:21;9.10;99.90
25112;DHT22;13092;51.996;4.458;2023-02-13T00:03:49;9.00;99.90
25112;DHT22;13092;51.996;4.458;2023-02-13T00:06:17;9.00;99.90
25112;DHT22;13092;51.996;4.458;2023-02-13T00:08:45;9.00;99.90
25112;DHT22;13092;51.996;4.458;2023-02-13T00:11:21;9.10;99.90
25112;DHT22;13092;51.996;4.458;2023-02-13T00:13:50;8.90;99.90
25112;DHT22;13092;51.996;4.458;2023-02-13T00:16:18;9.00;99.90
25112;DHT22;13092;51.996;4.458;2023-02-13T00:18:46;8.90;99.90
25112;DHT22;13092;51.996;4.458;2023-02-13T00:21:14;8.90;99.90
25112;DHT22;13092;51.996;4.458;2023-02-13T00:23:42;9.10;99.90
25112;DHT22;13092;51.996;4.458;2023-02-13T00:26:12;9.00;99.90
25112;DHT22;13092;51.996;4.458;2023-02-13T00:28:43;9.00;99.90
25112;DHT22;13092;51.996;4.458;2023-02-13T00:31:12;8.80;99.90
25112;DHT22;13092;51.996;4.458;2023-02-13T00:33:40;8.90;99.90
25112;DHT22;13092;51.996;4.458;2023-02-13T00:36:11;8.80;99.90
25112;DHT22;13092;51.996;4.458;2023-02-13T00:38:42;8.80;99.90
25112;DHT22;13092;51.996;4.458;2023-02-13T00:41:11;8.80;99.90
25112;DHT22;13092;51.996;4.458;2023-02-13T00:43:40;8.80;99.90
25112;DHT22;13092;51.996;4.458;2023-02-13T00:46:12;8.80;99.90
25112;DHT22;13092;51.996;4.458;2023-02-13T00:48:40;8.80;99.90
25112;DHT22;13092;51.996;4.458;2023-02-13T00:51:09;8.80;99.90
25112;DHT22;13092;51.996;4.458;2023-02-13T00:53:37;8.90;99.90
25112;DHT22;13092;51.996;4.458;2023-02-13T00:56:06;8.90;99.90
25112;DHT22;13092;51.996;4.458;2023-02-13T00:58:35;8.90;99.90
25112;DHT22;13092;51.996;4.458;2023-02-13T01:01:03;8.90;99.90
25112;DHT22;13092;51.996;4.458;2023-02-13T01:03:33;9.00;99.90
25112;DHT22;13092;51.996;4.458;2023-02-13T01:06:02;8.90;99.90
25112;DHT22;13092;51.996;4.458;2023-02-13T01:08:34;8.90;99.90
25112;DHT22;13092;51.996;4.458;2023-02-13T01:11:02;8.90;99.90
25112;DHT22;13092;51.996;4.458;2023-02-13T01:13:30;9.00;99.90
25112;DHT22;13092;51.996;4.458;2023-02-13T01:15:59;8.90;99.90
25112;DHT22;13092;51.996;4.458;2023-02-13T01:18:27;8.90;99.90
25112;DHT22;13092;51.996;4.458;2023-02-13T01:20:58;8.90;99.90
25112;DHT22;13092;51.996;4.458;2023-02-13T01:23:29;8.80;99.90
25112;DHT22;13092;51.996;4.458;2023-02-13T01:25:58;8.80;99.90
25112;DHT22;13092;51.996;4.458;2023-02-13T01:28:26;8.80;99.90
25112;DHT22;13092;51.996;4.458;2023-02-13T01:30:56;8.80;99.90
25112;DHT22;13092;51.996;4.458;2023-02-13T01:33:27;9.00;99.90
25112;DHT22;13092;51.996;4.458;2023-02-13T01:35:57;8.90;99.90
25112;DHT22;13092;51.996;4.458;2023-02-13T01:38:26;9.00;99.90
25112;DHT22;13092;51.996;4.458;2023-02-13T01:40:57;8.80;99.90
25112;DHT22;13092;51.996;4.458;2023-02-13T01:43:42;8.80;99.90
25112;DHT22;13092;51.996;4.458;2023-02-13T01:46:17;8.80;99.90
25112;DHT22;13092;51.996;4.458;2023-02-13T01:48:47;8.80;99.90
25112;DHT22;13092;51.996;4.458;2023-02-13T01:51:22;8.80;99.90
25112;DHT22;13092;51.996;4.458;2023-02-13T01:53:55;8.80;99.90
25112;DHT22;13092;51.996;4.458;2023-02-13T01:56:28;8.80;99.90
25112;DHT22;13092;51.996;4.458;2023-02-13T01:59:01;8.80;99.90
25112;DHT22;13092;51.996;4.458;2023-02-13T02:01:31;8.90;99.90
25112;DHT22;13092;51.996;4.458;2023-02-13T02:04:05;8.90;99.90
25112;DHT22;13092;51.996;4.458;2023-02-13T02:06:38;8.90;99.90
25112;DHT22;13092;51.996;4.458;2023-02-13T02:09:10;8.90;99.90
25112;DHT22;13092;51.996;4.458;2023-02-13T02:11:43;9.00;99.90
25112;DHT22;13092;51.996;4.458;2023-02-13T02:14:13;8.90;99.90
25112;DHT22;13092;51.996;4.458;2023-02-13T02:16:43;8.80;99.90
25112;DHT22;13092;51.996;4.458;2023-02-13T02:19:28;8.80;99.90
25112;DHT22;13092;51.996;4.458;2023-02-13T02:22:16;8.80;99.90
25112;DHT22;13092;51.996;4.458;2023-02-13T02:28:09;8.80;99.90
25112;DHT22;13092;51.996;4.458;2023-02-13T02:31:17;8.80;99.90
25112;DHT22;13092;51.996;4.458;2023-02-13T02:34:06;8.80;99.90
25112;DHT22;13092;51.996;4.458;2023-02-13T02:36:49;8.80;99.90
25112;DHT22;13092;51.996;4.458;2023-02-13T02:39:29;8.70;99.90
25112;DHT22;13092;51.996;4.458;2023-02-13T02:42:09;8.80;99.90
25112;DHT22;13092;51.996;4.458;2023-02-13T02:44:44;8.80;99.90
25112;DHT22;13092;51.996;4.458;2023-02-13T02:47:20;8.80;99.90
25112;DHT22;13092;51.996;4.458;2023-02-13T02:50:30;8.90;99.90
25112;DHT22;13092;51.996;4.458;2023-02-13T02:53:16;8.90;99.90
25112;DHT22;13092;51.996;4.458;2023-02-13T02:55:51;8.80;99.90
25112;DHT22;13092;51.996;4.458;2023-02-13T02:58:24;8.80;99.90
25112;DHT22;13092;51.996;4.458;2023-02-13T03:01:15;8.80;99.90
25112;DHT22;13092;51.996;4.458;2023-02-13T03:04:03;8.80;99.90
25112;DHT22;13092;51.996;4.458;2023-02-13T03:06:53;8.70;99.90
25112;DHT22;13092;51.996;4.458;2023-02-13T03:09:28;8.80;99.90
25112;DHT22;13092;51.996;4.458;2023-02-13T03:12:25;8.90;99.90
25112;DHT22;13092;51.996;4.458;2023-02-13T03:15:11;8.70;99.90
25112;DHT22;13092;51.996;4.458;2023-02-13T03:17:39;8.80;99.90
25112;DHT22;13092;51.996;4.458;2023-02-13T03:20:35;9.00;99.90
25112;DHT22;13092;51.996;4.458;2023-02-13T03:23:35;8.80;99.90
25112;DHT22;13092;51.996;4.458;2023-02-13T03:26:29;8.80;99.90
25112;DHT22;13092;51.996;4.458;2023-02-13T03:29:16;8.80;99.90
25112;DHT22;13092;51.996;4.458;2023-02-13T03:32:10;8.80;99.90
25112;DHT22;13092;51.996;4.458;2023-02-13T03:34:59;8.70;99.90
25112;DHT22;13092;51.996;4.458;2023-02-13T03:37:49;8.70;99.90
25112;DHT22;13092;51.996;4.458;2023-02-13T03:40:27;8.70;99.90
25112;DHT22;13092;51.996;4.458;2023-02-13T03:43:04;8.70;99.90
25112;DHT22;13092;51.996;4.458;2023-02-13T03:45:37;8.60;99.90
25112;DHT22;13092;51.996;4.458;2023-02-13T03:48:26;8.60;99.90
25112;DHT22;13092;51.996;4.458;2023-02-13T03:51:16;8.60;99.90
25112;DHT22;13092;51.996;4.458;2023-02-13T03:53:49;8.60;99.90
25112;DHT22;13092;51.996;4.458;2023-02-13T03:56:21;8.60;99.90
25112;DHT22;13092;51.996;4.458;2023-02-13T03:59:12;8.60;99.90
25112;DHT22;13092;51.996;4.458;2023-02-13T04:01:54;8.70;99.90
25112;DHT22;13092;51.996;4.458;2023-02-13T04:04:31;8.50;99.90
25112;DHT22;13092;51.996;4.458;2023-02-13T04:07:02;8.50;99.90
25112;DHT22;13092;51.996;4.458;2023-02-13T04:09:34;8.50;99.90
25112;DHT22;13092;51.996;4.458;2023-02-13T04:12:15;8.70;99.90
25112;DHT22;13092;51.996;4.458;2023-02-13T04:14:48;8.60;99.90
25112;DHT22;13092;51.996;4.458;2023-02-13T04:17:22;8.60;99.90
25112;DHT22;13092;51.996;4.458;2023-02-13T04:19:52;8.50;99.90
25112;DHT22;13092;51.996;4.458;2023-02-13T04:22:20;8.70;99.90
25112;DHT22;13092;51.996;4.458;2023-02-13T04:24:48;8.60;99.90
25112;DHT22;13092;51.996;4.458;2023-02-13T04:27:18;8.60;99.90
25112;DHT22;13092;51.996;4.458;2023-02-13T04:29:46;8.60;99.90
25112;DHT22;13092;51.996;4.458;2023-02-13T04:32:14;8.60;99.90
25112;DHT22;13092;51.996;4.458;2023-02-13T04:34:43;8.70;99.90
25112;DHT22;13092;51.996;4.458;2023-02-13T04:37:11;8.60;99.90
25112;DHT22;13092;51.996;4.458;2023-02-13T04:39:39;8.60;99.90
25112;DHT22;13092;51.996;4.458;2023-02-13T04:42:07;8.60;99.90
25112;DHT22;13092;51.996;4.458;2023-02-13T04:44:37;8.60;99.90
25112;DHT22;13092;51.996;4.458;2023-02-13T04:47:05;8.70;99.90
25112;DHT22;13092;51.996;4.458;2023-02-13T04:49:33;8.70;99.90
25112;DHT22;13092;51.996;4.458;2023-02-13T04:52:01;8.70;99.90
25112;DHT22;13092;51.996;4.458;2023-02-13T04:54:29;8.70;99.90
25112;DHT22;13092;51.996;4.458;2023-02-13T04:56:58;8.60;99.90
25112;DHT22;13092;51.996;4.458;2023-02-13T04:59:26;8.60;99.90
25112;DHT22;13092;51.996;4.458;2023-02-13T05:01:55;8.60;99.90
25112;DHT22;13092;51.996;4.458;2023-02-13T05:04:25;8.60;99.90
25112;DHT22;13092;51.996;4.458;2023-02-13T05:06:54;8.60;99.90
25112;DHT22;13092;51.996;4.458;2023-02-13T05:09:23;8.60;99.90
25112;DHT22;13092;51.996;4.458;2023-02-13T05:11:52;8.60;99.90
25112;DHT22;13092;51.996;4.458;2023-02-13T05:14:20;8.70;99.90
25112;DHT22;13092;51.996;4.458;2023-02-13T05:16:48;8.70;99.90
25112;DHT22;13092;51.996;4.458;2023-02-13T05:19:18;8.70;99.90
25112;DHT22;13092;51.996;4.458;2023-02-13T05:21:47;8.70;99.90
25112;DHT22;13092;51.996;4.458;2023-02-13T05:24:32;8.70;99.90
25112;DHT22;13092;51.996;4.458;2023-02-13T05:27:00;8.70;99.90
25112;DHT22;13092;51.996;4.458;2023-02-13T05:29:29;8.70;99.90
25112;DHT22;13092;51.996;4.458;2023-02-13T05:31:59;8.80;99.90
25112;DHT22;13092;51.996;4.458;2023-02-13T05:34:29;8.80;99.90
25112;DHT22;13092;51.996;4.458;2023-02-13T05:36:57;8.70;99.90
25112;DHT22;13092;51.996;4.458;2023-02-13T05:39:26;8.70;99.90
25112;DHT22;13092;51.996;4.458;2023-02-13T05:41:54;8.60;99.90
25112;DHT22;13092;51.996;4.458;2023-02-13T05:44:22;8.70;99.90
25112;DHT22;13092;51.996;4.458;2023-02-13T05:46:50;8.60;99.90
25112;DHT22;13092;51.996;4.458;2023-02-13T05:49:19;8.70;99.90
25112;DHT22;13092;51.996;4.458;2023-02-13T05:51:50;8.70;99.90
25112;DHT22;13092;51.996;4.458;2023-02-13T05:54:18;8.70;99.90
25112;DHT22;13092;51.996;4.458;2023-02-13T05:56:47;8.70;99.90
25112;DHT22;13092;51.996;4.458;2023-02-13T05:59:15;8.70;99.90
25112;DHT22;13092;51.996;4.458;2023-02-13T06:01:43;8.70;99.90
25112;DHT22;13092;51.996;4.458;2023-02-13T06:04:13;8.60;99.90
25112;DHT22;13092;51.996;4.458;2023-02-13T06:06:41;8.60;99.90
25112;DHT22;13092;51.996;4.458;2023-02-13T06:09:12;8.60;99.90
25112;DHT22;13092;51.996;4.458;2023-02-13T06:11:40;8.60;99.90
25112;DHT22;13092;51.996;4.458;2023-02-13T06:14:08;8.50;99.90
25112;DHT22;13092;51.996;4.458;2023-02-13T06:16:36;8.60;99.90
25112;DHT22;13092;51.996;4.458;2023-02-13T06:19:05;8.60;99.90
25112;DHT22;13092;51.996;4.458;2023-02-13T06:21:33;8.60;99.90
25112;DHT22;13092;51.996;4.458;2023-02-13T06:24:04;8.60;99.90
25112;DHT22;13092;51.996;4.458;2023-02-13T06:26:34;8.60;99.90
25112;DHT22;13092;51.996;4.458;2023-02-13T06:29:02;8.60;99.90
25112;DHT22;13092;51.996;4.458;2023-02-13T06:31:32;8.60;99.90
25112;DHT22;13092;51.996;4.458;2023-02-13T06:34:00;8.70;99.90
25112;DHT22;13092;51.996;4.458;2023-02-13T06:36:28;8.70;99.90
25112;DHT22;13092;51.996;4.458;2023-02-13T06:39:00;8.60;99.90
25112;DHT22;13092;51.996;4.458;2023-02-13T06:41:28;8.60;99.90
25112;DHT22;13092;51.996;4.458;2023-02-13T06:44:01;8.60;99.90
25112;DHT22;13092;51.996;4.458;2023-02-13T06:46:29;8.80;99.90
25112;DHT22;13092;51.996;4.458;2023-02-13T06:48:57;8.60;99.90
25112;DHT22;13092;51.996;4.458;2023-02-13T06:51:25;8.60;99.90
25112;DHT22;13092;51.996;4.458;2023-02-13T06:53:53;8.60;99.90
25112;DHT22;13092;51.996;4.458;2023-02-13T06:56:21;8.60;99.90
25112;DHT22;13092;51.996;4.458;2023-02-13T06:58:52;8.60;99.90
25112;DHT22;13092;51.996;4.458;2023-02-13T07:01:21;8.70;99.90
25112;DHT22;13092;51.996;4.458;2023-02-13T07:03:49;8.70;99.90
25112;DHT22;13092;51.996;4.458;2023-02-13T07:06:17;8.70;99.90
25112;DHT22;13092;51.996;4.458;2023-02-13T07:08:46;8.60;99.90
25112;DHT22;13092;51.996;4.458;2023-02-13T07:11:17;8.70;99.90
25112;DHT22;13092;51.996;4.458;2023-02-13T07:13:45;8.70;99.90
25112;DHT22;13092;51.996;4.458;2023-02-13T07:16:13;8.80;99.90
25112;DHT22;13092;51.996;4.458;2023-02-13T07:18:46;8.80;99.90
25112;DHT22;13092;51.996;4.458;2023-02-13T07:21:14;8.80;99.90
25112;DHT22;13092;51.996;4.458;2023-02-13T07:23:42;8.90;99.90
25112;DHT22;13092;51.996;4.458;2023-02-13T07:26:10;8.90;99.90
25112;DHT22;13092;51.996;4.458;2023-02-13T07:28:41;8.90;99.90
25112;DHT22;13092;51.996;4.458;2023-02-13T07:31:09;8.90;99.90
25112;DHT22;13092;51.996;4.458;2023-02-13T07:33:38;9.00;99.90
25112;DHT22;13092;51.996;4.458;2023-02-13T07:36:07;9.00;99.90
25112;DHT22;13092;51.996;4.458;2023-02-13T07:38:35;9.00;99.90
25112;DHT22;13092;51.996;4.458;2023-02-13T07:41:04;9.10;99.90
25112;DHT22;13092;51.996;4.458;2023-02-13T07:43:32;9.00;99.90
25112;DHT22;13092;51.996;4.458;2023-02-13T07:46:01;9.10;99.90
25112;DHT22;13092;51.996;4.458;2023-02-13T07:48:30;9.00;99.90
25112;DHT22;13092;51.996;4.458;2023-02-13T07:51:01;9.10;99.90
25112;DHT22;13092;51.996;4.458;2023-02-13T07:53:31;9.00;99.90
25112;DHT22;13092;51.996;4.458;2023-02-13T07:56:04;9.00;99.90
25112;DHT22;13092;51.996;4.458;2023-02-13T07:58:32;8.90;99.90
25112;DHT22;13092;51.996;4.458;2023-02-13T08:01:05;8.90;99.90
25112;DHT22;13092;51.996;4.458;2023-02-13T08:03:34;9.10;99.90
25112;DHT22;13092;51.996;4.458;2023-02-13T08:06:02;9.00;99.90
25112;DHT22;13092;51.996;4.458;2023-02-13T08:08:32;9.00;99.90
25112;DHT22;13092;51.996;4.458;2023-02-13T08:11:03;9.00;99.90
25112;DHT22;13092;51.996;4.458;2023-02-13T08:13:50;9.00;99.90
25112;DHT22;13092;51.996;4.458;2023-02-13T08:16:18;9.00;99.90
25112;DHT22;13092;51.996;4.458;2023-02-13T08:18:48;9.00;99.90
25112;DHT22;13092;51.996;4.458;2023-02-13T08:21:17;9.00;99.90
25112;DHT22;13092;51.996;4.458;2023-02-13T08:23:46;9.00;99.90
25112;DHT22;13092;51.996;4.458;2023-02-13T08:26:17;9.00;99.90
25112;DHT22;13092;51.996;4.458;2023-02-13T08:28:46;8.90;99.90
25112;DHT22;13092;51.996;4.458;2023-02-13T08:31:14;8.80;99.90
25112;DHT22;13092;51.996;4.458;2023-02-13T08:33:42;8.80;99.90
25112;DHT22;13092;51.996;4.458;2023-02-13T08:36:10;8.70;99.90
25112;DHT22;13092;51.996;4.458;2023-02-13T08:38:38;8.70;99.90
25112;DHT22;13092;51.996;4.458;2023-02-13T08:41:07;8.70;99.90
25112;DHT22;13092;51.996;4.458;2023-02-13T08:43:36;8.60;99.90
25112;DHT22;13092;51.996;4.458;2023-02-13T08:46:04;8.60;99.90
25112;DHT22;13092;51.996;4.458;2023-02-13T08:48:32;8.60;99.90
25112;DHT22;13092;51.996;4.458;2023-02-13T08:51:04;8.60;99.90
25112;DHT22;13092;51.996;4.458;2023-02-13T08:53:33;8.60;99.90
25112;DHT22;13092;51.996;4.458;2023-02-13T08:56:04;8.60;99.90
25112;DHT22;13092;51.996;4.458;2023-02-13T08:58:34;8.70;99.90
25112;DHT22;13092;51.996;4.458;2023-02-13T09:01:04;8.60;99.90
25112;DHT22;13092;51.996;4.458;2023-02-13T09:03:33;8.60;99.90
25112;DHT22;13092;51.996;4.458;2023-02-13T09:06:02;8.60;99.90
25112;DHT22;13092;51.996;4.458;2023-02-13T09:08:33;8.60;99.90
25112;DHT22;13092;51.996;4.458;2023-02-13T09:11:06;8.60;99.90
25112;DHT22;13092;51.996;4.458;2023-02-13T09:13:37;8.60;99.90
25112;DHT22;13092;51.996;4.458;2023-02-13T09:16:06;8.60;99.90
25112;DHT22;13092;51.996;4.458;2023-02-13T09:18:35;8.50;99.90
25112;DHT22;13092;51.996;4.458;2023-02-13T09:21:06;8.70;99.90
25112;DHT22;13092;51.996;4.458;2023-02-13T09:23:36;8.70;99.90
25112;DHT22;13092;51.996;4.458;2023-02-13T09:26:08;8.80;99.90
25112;DHT22;13092;51.996;4.458;2023-02-13T09:28:38;8.70;99.90
25112;DHT22;13092;51.996;4.458;2023-02-13T09:31:08;8.70;99.90
25112;DHT22;13092;51.996;4.458;2023-02-13T09:33:36;8.70;99.90
25112;DHT22;13092;51.996;4.458;2023-02-13T09:36:05;8.70;99.90
25112;DHT22;13092;51.996;4.458;2023-02-13T09:38:36;8.80;99.90
25112;DHT22;13092;51.996;4.458;2023-02-13T09:41:10;8.80;99.90
25112;DHT22;13092;51.996;4.458;2023-02-13T09:43:47;9.00;99.90
25112;DHT22;13092;51.996;4.458;2023-02-13T09:46:20;8.80;99.90
25112;DHT22;13092;51.996;4.458;2023-02-13T09:48:52;8.80;99.90
25112;DHT22;13092;51.996;4.458;2023-02-13T09:51:22;8.90;99.90
25112;DHT22;13092;51.996;4.458;2023-02-13T09:53:54;8.80;99.90
25112;DHT22;13092;51.996;4.458;2023-02-13T09:56:43;9.00;99.90
25112;DHT22;13092;51.996;4.458;2023-02-13T09:59:30;9.10;99.90
25112;DHT22;13092;51.996;4.458;2023-02-13T10:02:12;8.90;99.90
25112;DHT22;13092;51.996;4.458;2023-02-13T10:04:48;9.10;99.90
25112;DHT22;13092;51.996;4.458;2023-02-13T10:07:22;9.10;99.90
25112;DHT22;13092;51.996;4.458;2023-02-13T10:10:00;9.10;99.90
25112;DHT22;13092;51.996;4.458;2023-02-13T10:12:43;9.00;99.90
25112;DHT22;13092;51.996;4.458;2023-02-13T10:15:20;9.10;99.90
25112;DHT22;13092;51.996;4.458;2023-02-13T10:17:55;9.10;99.90
25112;DHT22;13092;51.996;4.458;2023-02-13T10:20:31;9.20;99.90
25112;DHT22;13092;51.996;4.458;2023-02-13T10:23:11;9.20;99.90
25112;DHT22;13092;51.996;4.458;2023-02-13T10:25:45;9.30;99.90
25112;DHT22;13092;51.996;4.458;2023-02-13T10:28:16;9.30;99.90
25112;DHT22;13092;51.996;4.458;2023-02-13T10:30:52;9.30;99.90
25112;DHT22;13092;51.996;4.458;2023-02-13T10:33:26;9.40;99.90
25112;DHT22;13092;51.996;4.458;2023-02-13T10:36:00;9.40;99.90
25112;DHT22;13092;51.996;4.458;2023-02-13T10:38:31;9.40;99.90
25112;DHT22;13092;51.996;4.458;2023-02-13T10:41:05;9.30;99.90
25112;DHT22;13092;51.996;4.458;2023-02-13T10:43:51;9.60;99.90
25112;DHT22;13092;51.996;4.458;2023-02-13T10:46:29;9.40;99.90
25112;DHT22;13092;51.996;4.458;2023-02-13T10:49:16;9.50;99.90
25112;DHT22;13092;51.996;4.458;2023-02-13T10:51:52;9.40;99.90
25112;DHT22;13092;51.996;4.458;2023-02-13T10:54:39;9.50;99.90
25112;DHT22;13092;51.996;4.458;2023-02-13T10:57:17;9.60;99.90
25112;DHT22;13092;51.996;4.458;2023-02-13T11:00:05;9.70;99.90
25112;DHT22;13092;51.996;4.458;2023-02-13T11:02:37;9.70;99.90
25112;DHT22;13092;51.996;4.458;2023-02-13T11:05:14;9.70;99.90
25112;DHT22;13092;51.996;4.458;2023-02-13T11:07:43;9.80;99.90
25112;DHT22;13092;51.996;4.458;2023-02-13T11:10:15;9.80;99.90
25112;DHT22;13092;51.996;4.458;2023-02-13T11:12:44;9.90;99.90
25112;DHT22;13092;51.996;4.458;2023-02-13T11:15:26;9.90;99.90
25112;DHT22;13092;51.996;4.458;2023-02-13T11:17:58;10.10;99.90
25112;DHT22;13092;51.996;4.458;2023-02-13T11:20:33;10.10;99.90
25112;DHT22;13092;51.996;4.458;2023-02-13T11:23:27;10.20;99.90
25112;DHT22;13092;51.996;4.458;2023-02-13T11:26:01;10.20;99.90
25112;DHT22;13092;51.996;4.458;2023-02-13T11:28:32;10.30;99.90
25112;DHT22;13092;51.996;4.458;2023-02-13T11:31:11;10.30;99.90
25112;DHT22;13092;51.996;4.458;2023-02-13T11:33:44;10.40;99.90
25112;DHT22;13092;51.996;4.458;2023-02-13T11:36:19;10.60;99.90
25112;DHT22;13092;51.996;4.458;2023-02-13T11:39:00;10.50;99.90
25112;DHT22;13092;51.996;4.458;2023-02-13T11:41:38;10.60;99.90
25112;DHT22;13092;51.996;4.458;2023-02-13T11:44:23;10.70;99.90
25112;DHT22;13092;51.996;4.458;2023-02-13T11:46:56;10.70;99.90
25112;DHT22;13092;51.996;4.458;2023-02-13T11:49:29;10.70;99.90
25112;DHT22;13092;51.996;4.458;2023-02-13T11:52:00;10.80;99.90
25112;DHT22;13092;51.996;4.458;2023-02-13T11:54:32;10.90;99.90
25112;DHT22;13092;51.996;4.458;2023-02-13T11:57:02;10.90;99.90
25112;DHT22;13092;51.996;4.458;2023-02-13T11:59:41;11.00;99.90
25112;DHT22;13092;51.996;4.458;2023-02-13T12:02:15;11.20;99.90
25112;DHT22;13092;51.996;4.458;2023-02-13T12:04:46;11.20;99.90
25112;DHT22;13092;51.996;4.458;2023-02-13T12:07:25;11.20;99.90
25112;DHT22;13092;51.996;4.458;2023-02-13T12:09:59;11.40;99.90
25112;DHT22;13092;51.996;4.458;2023-02-13T12:12:33;11.30;99.90
25112;DHT22;13092;51.996;4.458;2023-02-13T12:15:13;11.40;99.90
25112;DHT22;13092;51.996;4.458;2023-02-13T12:17:44;11.50;99.90
25112;DHT22;13092;51.996;4.458;2023-02-13T12:20:17;11.60;99.90
25112;DHT22;13092;51.996;4.458;2023-02-13T12:22:53;11.60;99.90
25112;DHT22;13092;51.996;4.458;2023-02-13T12:25:47;11.60;99.90
25112;DHT22;13092;51.996;4.458;2023-02-13T12:28:17;11.80;99.90
25112;DHT22;13092;51.996;4.458;2023-02-13T12:36:57;11.90;99.90
25112;DHT22;13092;51.996;4.458;2023-02-13T12:39:32;12.00;99.90
25112;DHT22;13092;51.996;4.458;2023-02-13T12:42:17;11.90;99.90
25112;DHT22;13092;51.996;4.458;2023-02-13T12:45:01;12.00;99.90
25112;DHT22;13092;51.996;4.458;2023-02-13T12:47:34;12.10;99.90
25112;DHT22;13092;51.996;4.458;2023-02-13T12:50:51;12.20;99.90
25112;DHT22;13092;51.996;4.458;2023-02-13T12:53:43;12.30;99.90
25112;DHT22;13092;51.996;4.458;2023-02-13T12:56:42;12.40;99.90
25112;DHT22;13092;51.996;4.458;2023-02-13T12:59:22;12.40;99.90
25112;DHT22;13092;51.996;4.458;2023-02-13T13:02:09;12.50;99.90
25112;DHT22;13092;51.996;4.458;2023-02-13T13:04:47;12.50;99.90
25112;DHT22;13092;51.996;4.458;2023-02-13T13:07:26;12.50;99.90
25112;DHT22;13092;51.996;4.458;2023-02-13T13:10:27;12.50;99.90
25112;DHT22;13092;51.996;4.458;2023-02-13T13:13:07;12.40;99.90
25112;DHT22;13092;51.996;4.458;2023-02-13T13:15:42;12.50;99.90
25112;DHT22;13092;51.996;4.458;2023-02-13T13:18:20;12.50;99.90
25112;DHT22;13092;51.996;4.458;2023-02-13T13:21:00;12.50;99.90
25112;DHT22;13092;51.996;4.458;2023-02-13T13:23:36;12.60;99.90
25112;DHT22;13092;51.996;4.458;2023-02-13T13:26:15;12.60;99.90
25112;DHT22;13092;51.996;4.458;2023-02-13T13:28:51;12.70;99.90
25112;DHT22;13092;51.996;4.458;2023-02-13T13:31:21;12.80;99.90
25112;DHT22;13092;51.996;4.458;2023-02-13T13:33:55;12.80;99.90
25112;DHT22;13092;51.996;4.458;2023-02-13T13:36:34;12.80;99.90
25112;DHT22;13092;51.996;4.458;2023-02-13T13:39:13;12.80;99.90
25112;DHT22;13092;51.996;4.458;2023-02-13T13:41:51;12.80;99.90
25112;DHT22;13092;51.996;4.458;2023-02-13T13:44:40;12.80;99.90
25112;DHT22;13092;51.996;4.458;2023-02-13T13:47:19;12.80;99.90
25112;DHT22;13092;51.996;4.458;2023-02-13T13:49:52;12.70;99.90
25112;DHT22;13092;51.996;4.458;2023-02-13T13:52:24;12.70;99.90
25112;DHT22;13092;51.996;4.458;2023-02-13T13:54:54;12.80;99.90
25112;DHT22;13092;51.996;4.458;2023-02-13T13:57:25;12.70;99.90
25112;DHT22;13092;51.996;4.458;2023-02-13T14:00:18;12.80;99.90
25112;DHT22;13092;51.996;4.458;2023-02-13T14:03:21;12.80;99.90
25112;DHT22;13092;51.996;4.458;2023-02-13T14:06:07;12.90;99.90
25112;DHT22;13092;51.996;4.458;2023-02-13T14:08:55;12.90;99.90
25112;DHT22;13092;51.996;4.458;2023-02-13T14:11:29;12.90;99.90
25112;DHT22;13092;51.996;4.458;2023-02-13T14:14:00;12.90;99.90
25112;DHT22;13092;51.996;4.458;2023-02-13T14:16:41;12.90;99.90
25112;DHT22;13092;51.996;4.458;2023-02-13T14:19:25;13.10;99.90
25112;DHT22;13092;51.996;4.458;2023-02-13T14:22:26;13.00;99.90
25112;DHT22;13092;51.996;4.458;2023-02-13T14:25:00;13.10;99.90
25112;DHT22;13092;51.996;4.458;2023-02-13T14:27:32;13.10;99.90
25112;DHT22;13092;51.996;4.458;2023-02-13T14:30:20;13.20;99.90
25112;DHT22;13092;51.996;4.458;2023-02-13T14:32:49;13.20;99.90
25112;DHT22;13092;51.996;4.458;2023-02-13T14:35:22;13.20;99.90
25112;DHT22;13092;51.996;4.458;2023-02-13T14:37:52;13.30;99.90
25112;DHT22;13092;51.996;4.458;2023-02-13T14:40:43;13.20;99.90
25112;DHT22;13092;51.996;4.458;2023-02-13T14:43:34;13.20;99.90
25112;DHT22;13092;51.996;4.458;2023-02-13T14:46:27;13.30;99.90
25112;DHT22;13092;51.996;4.458;2023-02-13T14:49:05;13.30;99.90
25112;DHT22;13092;51.996;4.458;2023-02-13T14:51:39;13.30;99.90
25112;DHT22;13092;51.996;4.458;2023-02-13T14:54:16;13.30;99.90
25112;DHT22;13092;51.996;4.458;2023-02-13T14:56:48;13.40;99.90
25112;DHT22;13092;51.996;4.458;2023-02-13T14:59:19;13.40;99.90
25112;DHT22;13092;51.996;4.458;2023-02-13T15:01:54;13.40;99.90
25112;DHT22;13092;51.996;4.458;2023-02-13T15:04:29;13.40;99.90
25112;DHT22;13092;51.996;4.458;2023-02-13T15:07:03;13.40;99.90
25112;DHT22;13092;51.996;4.458;2023-02-13T15:09:34;13.50;99.90
25112;DHT22;13092;51.996;4.458;2023-02-13T15:12:24;13.50;99.90
25112;DHT22;13092;51.996;4.458;2023-02-13T15:14:52;13.40;99.90
25112;DHT22;13092;51.996;4.458;2023-02-13T15:17:24;13.50;99.90
25112;DHT22;13092;51.996;4.458;2023-02-13T15:19:56;13.40;99.90
25112;DHT22;13092;51.996;4.458;2023-02-13T15:22:31;13.40;99.90
25112;DHT22;13092;51.996;4.458;2023-02-13T15:25:00;13.40;99.90
25112;DHT22;13092;51.996;4.458;2023-02-13T15:27:30;13.40;99.90
25112;DHT22;13092;51.996;4.458;2023-02-13T15:30:04;13.50;99.90
25112;DHT22;13092;51.996;4.458;2023-02-13T15:32:35;13.50;99.90
25112;DHT22;13092;51.996;4.458;2023-02-13T15:35:20;13.40;99.90
25112;DHT22;13092;51.996;4.458;2023-02-13T15:37:51;13.50;99.90
25112;DHT22;13092;51.996;4.458;2023-02-13T15:40:24;13.40;99.90
25112;DHT22;13092;51.996;4.458;2023-02-13T15:42:53;13.50;99.90
25112;DHT22;13092;51.996;4.458;2023-02-13T15:45:24;13.50;99.90
25112;DHT22;13092;51.996;4.458;2023-02-13T15:47:55;13.60;99.90
25112;DHT22;13092;51.996;4.458;2023-02-13T15:50:28;13.50;99.90
25112;DHT22;13092;51.996;4.458;2023-02-13T15:53:01;13.50;99.90
25112;DHT22;13092;51.996;4.458;2023-02-13T15:55:31;13.60;99.90
25112;DHT22;13092;51.996;4.458;2023-02-13T15:58:02;13.40;99.90
25112;DHT22;13092;51.996;4.458;2023-02-13T16:00:40;13.60;99.90
25112;DHT22;13092;51.996;4.458;2023-02-13T16:03:16;13.60;99.90
25112;DHT22;13092;51.996;4.458;2023-02-13T16:05:45;13.60;99.90
25112;DHT22;13092;51.996;4.458;2023-02-13T16:08:32;13.50;99.90
25112;DHT22;13092;51.996;4.458;2023-02-13T16:11:24;13.60;99.90
25112;DHT22;13092;51.996;4.458;2023-02-13T16:14:14;13.50;99.90
25112;DHT22;13092;51.996;4.458;2023-02-13T16:16:48;13.40;99.90
25112;DHT22;13092;51.996;4.458;2023-02-13T16:19:49;13.30;99.90
25112;DHT22;13092;51.996;4.458;2023-02-13T16:22:28;13.20;99.90
25112;DHT22;13092;51.996;4.458;2023-02-13T16:25:05;13.10;99.90
25112;DHT22;13092;51.996;4.458;2023-02-13T16:27:35;13.10;99.90
25112;DHT22;13092;51.996;4.458;2023-02-13T16:30:06;13.00;99.90
25112;DHT22;13092;51.996;4.458;2023-02-13T16:32:35;12.90;99.90
25112;DHT22;13092;51.996;4.458;2023-02-13T16:35:26;12.70;99.90
25112;DHT22;13092;51.996;4.458;2023-02-13T16:37:56;12.60;99.90